createdAt,value
2023-04-18T00:00:14.182Z,25.08
2023-04-18T00:02:44.036Z,24.70
2023-04-18T00:05:12.673Z,24.78
2023-04-18T00:07:41.268Z,24.34
2023-04-18T00:10:09.266Z,24.57
2023-04-18T00:12:37.390Z,24.58
2023-04-18T00:15:07.377Z,24.55
2023-04-18T00:17:38.530Z,24.44
2023-04-18T00:20:10.396Z,24.49
2023-04-18T00:22:42.871Z,24.58
2023-04-18T00:25:11.377Z,24.34
2023-04-18T00:27:39.397Z,24.98
2023-04-18T00:30:08.631Z,24.51
2023-04-18T00:32:38.949Z,24.74
2023-04-18T00:35:07.129Z,24.62
2023-04-18T00:37:35.260Z,24.47
2023-04-18T00:40:05.550Z,24.48
2023-04-18T00:42:33.816Z,24.53
2023-04-18T00:45:01.850Z,24.68
2023-04-18T00:47:30.458Z,24.84
2023-04-18T00:49:59.411Z,24.61
2023-04-18T00:52:27.384Z,24.70
2023-04-18T00:54:55.543Z,24.86
2023-04-18T00:57:23.474Z,24.69
2023-04-18T00:59:54.019Z,24.99
2023-04-18T01:02:23.450Z,24.80
2023-04-18T01:04:52.262Z,24.74
2023-04-18T01:07:20.367Z,24.91
2023-04-18T01:09:48.573Z,24.99
2023-04-18T01:12:16.707Z,24.95
2023-04-18T01:14:45.091Z,25.26
2023-04-18T01:17:14.600Z,25.01
2023-04-18T01:19:46.862Z,25.10
2023-04-18T01:22:14.882Z,25.02
2023-04-18T01:24:42.816Z,25.11
2023-04-18T01:27:13.467Z,25.30
2023-04-18T01:29:41.470Z,25.29
2023-04-18T01:32:09.392Z,25.42
2023-04-18T01:34:38.159Z,25.38
2023-04-18T01:37:07.179Z,25.79
2023-04-18T01:39:35.921Z,25.69
2023-04-18T01:42:03.849Z,25.75
2023-04-18T01:44:32.997Z,25.53
2023-04-18T01:47:00.971Z,25.54
2023-04-18T01:49:29.037Z,25.14
2023-04-18T01:51:57.009Z,25.17
2023-04-18T01:54:24.973Z,25.04
2023-04-18T01:56:54.080Z,25.53
2023-04-18T01:59:22.462Z,25.65
2023-04-18T02:01:50.560Z,25.49
2023-04-18T02:04:19.026Z,25.63
2023-04-18T02:06:47.591Z,25.50
2023-04-18T02:09:16.385Z,25.43
2023-04-18T02:11:44.342Z,25.78
2023-04-18T02:14:14.127Z,25.49
2023-04-18T02:16:42.418Z,25.47
2023-04-18T02:19:10.374Z,25.48
2023-04-18T02:21:38.298Z,25.22
2023-04-18T02:24:06.485Z,25.29
2023-04-18T02:26:34.469Z,25.25
2023-04-18T02:29:02.562Z,25.21
2023-04-18T02:31:30.641Z,25.34
2023-04-18T02:33:58.916Z,25.10
2023-04-18T02:36:28.211Z,25.11
2023-04-18T02:38:56.109Z,25.35
2023-04-18T02:41:24.144Z,24.98
2023-04-18T02:43:52.048Z,25.18
2023-04-18T02:46:20.474Z,25.17
2023-04-18T02:48:49.430Z,25.28
2023-04-18T02:51:19.984Z,25.19
2023-04-18T02:53:48.531Z,24.99
2023-04-18T02:56:17.275Z,25.10
2023-04-18T02:59:05.556Z,24.93
2023-04-18T03:01:45.398Z,25.23
2023-04-18T03:04:16.510Z,25.10
2023-04-18T03:06:50.209Z,24.85
2023-04-18T03:09:18.878Z,24.91
2023-04-18T03:11:50.572Z,25.38
2023-04-18T03:14:19.182Z,25.16
2023-04-18T03:16:53.806Z,25.22
2023-04-18T03:19:25.875Z,25.26
2023-04-18T03:21:54.350Z,25.04
2023-04-18T03:24:23.448Z,25.32
2023-04-18T03:26:52.632Z,25.49
2023-04-18T03:29:22.332Z,25.28
2023-04-18T03:31:50.418Z,25.46
2023-04-18T03:34:18.340Z,25.58
2023-04-18T03:36:48.010Z,25.67
2023-04-18T03:39:16.467Z,25.61
2023-04-18T03:41:45.164Z,25.41
2023-04-18T03:44:13.685Z,25.68
2023-04-18T03:46:42.130Z,25.66
2023-04-18T03:49:10.450Z,25.54
2023-04-18T03:51:43.644Z,25.68
2023-04-18T03:54:11.942Z,25.30
2023-04-18T03:56:40.296Z,25.50
2023-04-18T03:59:08.719Z,25.71
2023-04-18T04:01:37.198Z,25.42
2023-04-18T04:04:05.366Z,25.62
2023-04-18T04:06:33.989Z,25.86
2023-04-18T04:09:01.946Z,25.53
2023-04-18T04:11:30.206Z,25.50
2023-04-18T04:13:58.258Z,25.33
2023-04-18T04:16:30.903Z,25.06
2023-04-18T04:18:58.933Z,25.28
2023-04-18T04:21:32.463Z,25.41
2023-04-18T04:24:01.613Z,25.20
2023-04-18T04:26:38.729Z,25.06
2023-04-18T04:29:13.910Z,24.78
2023-04-18T04:31:42.495Z,24.48
2023-04-18T04:34:10.444Z,24.32
2023-04-18T04:36:41.287Z,24.12
2023-04-18T04:39:11.303Z,24.16
2023-04-18T04:41:58.055Z,23.78
2023-04-18T04:44:26.895Z,23.57
2023-04-18T04:46:56.041Z,23.71
2023-04-18T04:49:26.915Z,23.69
2023-04-18T04:51:54.774Z,23.42
2023-04-18T04:54:23.121Z,23.44
2023-04-18T04:56:51.803Z,23.25
2023-04-18T04:59:20.765Z,22.91
2023-04-18T05:01:48.931Z,22.71
2023-04-18T05:04:17.336Z,22.65
2023-04-18T05:06:46.487Z,22.33
2023-04-18T05:09:14.393Z,22.23
2023-04-18T05:11:42.405Z,21.97
2023-04-18T05:14:10.402Z,21.98
2023-04-18T05:16:38.340Z,21.84
2023-04-18T05:19:06.273Z,21.82
2023-04-18T05:21:34.797Z,21.43
2023-04-18T05:24:02.770Z,21.39
2023-04-18T05:26:30.838Z,21.30
2023-04-18T05:28:58.683Z,21.14
2023-04-18T05:31:26.961Z,21.31
2023-04-18T05:33:54.930Z,21.18
2023-04-18T05:36:22.929Z,21.40
2023-04-18T05:38:53.820Z,21.71
2023-04-18T05:41:21.698Z,21.75
2023-04-18T05:43:58.205Z,21.51
2023-04-18T05:46:32.960Z,21.44
2023-04-18T05:49:01.337Z,21.90
2023-04-18T05:51:29.487Z,21.65
2023-04-18T05:53:57.429Z,21.13
2023-04-18T05:56:25.331Z,20.84
2023-04-18T05:58:53.196Z,20.47
2023-04-18T06:01:21.568Z,19.98
2023-04-18T06:03:49.720Z,19.70
2023-04-18T06:06:18.151Z,19.14
2023-04-18T06:08:46.589Z,18.88
2023-04-18T06:11:15.474Z,18.88
2023-04-18T06:13:43.389Z,19.28
2023-04-18T06:16:12.087Z,19.39
2023-04-18T06:18:40.119Z,19.49
2023-04-18T06:21:08.122Z,19.79
2023-04-18T06:23:36.122Z,19.83
2023-04-18T06:26:04.066Z,19.65
2023-04-18T06:28:33.316Z,20.41
2023-04-18T06:31:01.221Z,20.58
2023-04-18T06:33:33.442Z,20.62
2023-04-18T06:36:01.646Z,20.47
2023-04-18T06:38:30.036Z,20.92
2023-04-18T06:40:57.953Z,21.01
2023-04-18T06:43:26.279Z,20.79
2023-04-18T06:45:54.679Z,20.50
2023-04-18T06:48:22.866Z,20.94
2023-04-18T06:50:50.860Z,20.99
2023-04-18T06:53:18.926Z,21.23
2023-04-18T06:55:46.783Z,21.40
2023-04-18T06:58:16.306Z,21.39
2023-04-18T07:00:44.432Z,21.46
2023-04-18T07:03:13.675Z,21.59
2023-04-18T07:05:41.847Z,21.62
2023-04-18T07:08:09.721Z,22.11
2023-04-18T07:10:37.603Z,22.29
2023-04-18T07:13:06.154Z,22.10
2023-04-18T07:15:37.139Z,22.19
2023-04-18T07:18:05.252Z,22.08
2023-04-18T07:20:33.183Z,22.06
2023-04-18T07:23:01.229Z,21.87
2023-04-18T07:25:29.387Z,21.09
2023-04-18T07:27:57.274Z,20.97
2023-04-18T07:30:25.237Z,21.12
2023-04-18T07:32:53.383Z,20.79
2023-04-18T07:35:21.955Z,20.54
2023-04-18T07:37:49.877Z,19.90
2023-04-18T07:40:18.061Z,20.54
2023-04-18T07:42:46.206Z,20.56
2023-04-18T07:45:15.485Z,19.90
2023-04-18T07:47:43.433Z,19.82
2023-04-18T07:50:11.841Z,19.48
2023-04-18T07:52:39.906Z,19.78
2023-04-18T07:55:08.493Z,19.64
2023-04-18T07:57:37.037Z,19.62
2023-04-18T08:00:06.509Z,19.78
2023-04-18T08:02:41.762Z,18.92
2023-04-18T08:05:10.464Z,19.27
2023-04-18T08:07:38.912Z,19.25
2023-04-18T08:10:07.414Z,19.48
2023-04-18T08:12:36.800Z,19.14
2023-04-18T08:15:05.209Z,18.81
2023-04-18T08:17:38.890Z,18.68
2023-04-18T08:20:07.351Z,18.58
2023-04-18T08:22:44.080Z,18.85
2023-04-18T08:25:18.406Z,18.82
2023-04-18T08:27:46.457Z,18.93
2023-04-18T08:30:14.449Z,18.78
2023-04-18T08:32:42.336Z,18.63
2023-04-18T08:35:10.273Z,18.33
2023-04-18T08:37:38.266Z,18.48
2023-04-18T08:40:07.501Z,18.48
2023-04-18T08:42:36.032Z,18.44
2023-04-18T08:45:05.747Z,18.52
2023-04-18T08:47:35.391Z,18.38
2023-04-18T08:50:03.503Z,18.37
2023-04-18T08:52:32.004Z,18.31
2023-04-18T08:55:02.750Z,18.61
2023-04-18T08:57:31.800Z,18.64
2023-04-18T09:00:05.780Z,18.45
2023-04-18T09:02:42.607Z,18.43
2023-04-18T09:05:14.996Z,18.42
2023-04-18T09:07:43.219Z,18.70
2023-04-18T09:10:11.251Z,18.58
2023-04-18T09:12:52.373Z,19.12
2023-04-18T09:15:23.594Z,18.55
2023-04-18T09:17:56.483Z,18.13
2023-04-18T09:20:43.685Z,18.11
2023-04-18T09:23:14.896Z,18.18
2023-04-18T09:25:45.069Z,18.68
2023-04-18T09:28:33.263Z,18.33
2023-04-18T09:31:11.991Z,18.31
2023-04-18T09:33:44.818Z,18.19
2023-04-18T09:36:17.881Z,17.94
2023-04-18T09:38:46.720Z,18.15
2023-04-18T09:41:21.243Z,17.94
2023-04-18T09:43:49.643Z,18.01
2023-04-18T09:46:18.061Z,18.07
2023-04-18T09:48:46.272Z,18.08
2023-04-18T09:51:15.038Z,18.25
2023-04-18T09:53:50.409Z,18.31
2023-04-18T09:56:26.263Z,18.93
2023-04-18T09:59:08.611Z,19.31
2023-04-18T10:01:36.897Z,19.12
2023-04-18T10:04:06.883Z,19.11
2023-04-18T10:06:38.563Z,18.79
2023-04-18T10:09:07.718Z,18.57
2023-04-18T10:11:36.481Z,18.09
2023-04-18T10:14:09.851Z,18.33
2023-04-18T10:16:38.120Z,18.60
2023-04-18T10:19:26.174Z,17.69
2023-04-18T10:21:55.142Z,17.94
2023-04-18T10:24:45.161Z,17.86
2023-04-18T10:27:13.374Z,17.43
2023-04-18T10:29:51.375Z,17.61
2023-04-18T10:32:20.535Z,17.38
2023-04-18T10:34:49.303Z,17.27
2023-04-18T10:37:19.062Z,17.29
2023-04-18T10:39:52.294Z,17.54
2023-04-18T10:42:20.772Z,17.52
2023-04-18T10:45:17.045Z,17.78
2023-04-18T10:47:45.073Z,17.87
2023-04-18T10:50:13.310Z,18.23
2023-04-18T10:52:41.838Z,18.37
2023-04-18T10:55:28.881Z,18.59
2023-04-18T10:57:56.935Z,18.02
2023-04-18T11:00:24.998Z,18.42
2023-04-18T11:02:55.974Z,18.46
2023-04-18T11:05:28.231Z,18.18
2023-04-18T11:07:56.199Z,18.28
2023-04-18T11:10:26.478Z,17.95
2023-04-18T11:12:54.956Z,17.90
2023-04-18T11:15:23.881Z,18.19
2023-04-18T11:17:56.966Z,18.50
2023-04-18T11:20:25.711Z,18.83
2023-04-18T11:22:57.717Z,18.58
2023-04-18T11:25:28.149Z,18.61
2023-04-18T11:27:58.880Z,18.89
2023-04-18T11:30:27.422Z,18.71
2023-04-18T11:32:56.101Z,18.80
2023-04-18T11:35:24.222Z,18.76
2023-04-18T11:37:52.301Z,18.63
2023-04-18T11:40:21.889Z,18.52
2023-04-18T11:42:49.912Z,18.46
2023-04-18T11:45:17.935Z,19.05
2023-04-18T11:47:46.563Z,19.29
2023-04-18T11:50:14.498Z,19.14
2023-04-18T11:52:42.874Z,19.23
2023-04-18T11:55:25.005Z,18.94
2023-04-18T11:57:53.787Z,19.18
2023-04-18T12:00:38.702Z,19.11
2023-04-18T12:03:12.563Z,19.36
2023-04-18T12:05:42.394Z,19.10
2023-04-18T12:08:14.186Z,18.66
2023-04-18T12:12:03.958Z,20.78
2023-04-18T12:14:32.422Z,18.72
2023-04-18T12:17:03.325Z,18.75
2023-04-18T12:19:32.993Z,19.38
2023-04-18T12:22:02.147Z,19.77
2023-04-18T12:24:30.389Z,20.28
2023-04-18T12:26:59.020Z,20.88
2023-04-18T12:29:27.548Z,21.02
2023-04-18T12:31:55.693Z,21.24
2023-04-18T12:34:23.790Z,21.11
2023-04-18T12:36:52.398Z,21.50
2023-04-18T12:39:20.665Z,21.92
2023-04-18T12:41:49.792Z,22.23
2023-04-18T12:44:18.356Z,22.23
2023-04-18T12:46:46.545Z,23.05
2023-04-18T12:49:14.478Z,23.36
2023-04-18T12:51:43.576Z,23.72
2023-04-18T12:54:11.588Z,23.88
2023-04-18T12:56:39.701Z,23.80
2023-04-18T12:59:07.601Z,24.05
2023-04-18T13:01:35.852Z,24.00
2023-04-18T13:04:11.997Z,24.28
2023-04-18T13:06:41.598Z,24.81
2023-04-18T13:09:10.339Z,24.82
2023-04-18T13:11:38.861Z,25.19
2023-04-18T13:14:07.106Z,25.44
2023-04-18T13:16:35.797Z,25.51
2023-04-18T13:19:03.709Z,25.69
2023-04-18T13:21:31.800Z,25.70
2023-04-18T13:23:59.796Z,24.97
2023-04-18T13:26:27.844Z,25.20
2023-04-18T13:28:55.926Z,25.76
2023-04-18T13:31:24.072Z,25.78
2023-04-18T13:33:52.591Z,26.40
2023-04-18T13:36:20.744Z,26.12
2023-04-18T13:38:49.907Z,25.77
2023-04-18T13:41:17.898Z,25.61
2023-04-18T13:43:45.825Z,25.87
2023-04-18T13:46:13.985Z,25.75
2023-04-18T13:48:42.152Z,25.79
2023-04-18T13:51:10.078Z,26.10
2023-04-18T13:53:39.535Z,26.46
2023-04-18T13:56:07.897Z,26.39
2023-04-18T13:58:36.467Z,26.50
2023-04-18T14:01:04.422Z,26.65
2023-04-18T14:03:34.043Z,27.04
2023-04-18T14:06:03.498Z,26.87
2023-04-18T14:08:31.686Z,26.89
2023-04-18T14:10:59.628Z,26.38
2023-04-18T14:13:27.569Z,25.99
2023-04-18T14:15:55.513Z,25.90
2023-04-18T14:18:24.724Z,25.84
2023-04-18T14:20:52.670Z,26.21
2023-04-18T14:23:22.505Z,25.77
2023-04-18T14:25:50.726Z,26.55
2023-04-18T14:28:23.667Z,26.86
2023-04-18T14:30:52.465Z,26.58
2023-04-18T14:33:20.847Z,26.75
2023-04-18T14:35:49.113Z,26.43
2023-04-18T14:38:17.071Z,26.13
2023-04-18T14:40:45.324Z,25.92
2023-04-18T14:43:14.018Z,25.84
2023-04-18T14:45:41.968Z,25.98
2023-04-18T14:48:10.377Z,25.61
2023-04-18T14:50:38.904Z,25.42
2023-04-18T14:53:07.087Z,25.24
2023-04-18T14:55:35.121Z,25.07
2023-04-18T14:58:03.050Z,24.50
2023-04-18T15:00:34.095Z,24.15
2023-04-18T15:03:02.187Z,24.25
2023-04-18T15:05:30.406Z,24.17
2023-04-18T15:07:58.569Z,24.39
2023-04-18T15:10:26.533Z,24.27
2023-04-18T15:12:54.470Z,23.87
2023-04-18T15:15:22.759Z,23.91
2023-04-18T15:17:50.733Z,23.97
2023-04-18T15:20:18.971Z,24.40
2023-04-18T15:22:46.940Z,24.39
2023-04-18T15:25:16.602Z,24.20
2023-04-18T15:27:44.535Z,24.47
2023-04-18T15:30:12.986Z,24.62
2023-04-18T15:32:42.258Z,24.98
2023-04-18T15:35:10.571Z,24.76
2023-04-18T15:37:38.638Z,25.35
2023-04-18T15:40:09.619Z,25.37
2023-04-18T15:42:37.665Z,24.44
2023-04-18T15:45:06.619Z,25.05
2023-04-18T15:47:34.745Z,25.16
2023-04-18T15:50:03.534Z,24.46
2023-04-18T15:52:31.529Z,24.15
2023-04-18T15:55:00.334Z,24.22
2023-04-18T15:57:29.838Z,24.48
2023-04-18T15:59:59.584Z,24.32
2023-04-18T16:02:27.747Z,24.81
2023-04-18T16:04:55.786Z,24.83
2023-04-18T16:07:23.711Z,24.49
2023-04-18T16:09:51.696Z,24.60
2023-04-18T16:12:19.639Z,24.78
2023-04-18T16:14:47.786Z,24.90
2023-04-18T16:17:15.755Z,25.38
2023-04-18T16:19:43.923Z,25.51
2023-04-18T16:22:13.633Z,25.30
2023-04-18T16:24:42.271Z,25.36
2023-04-18T16:27:10.444Z,25.09
2023-04-18T16:29:38.400Z,25.30
2023-04-18T16:32:06.874Z,25.46
2023-04-18T16:34:35.843Z,25.24
2023-04-18T16:37:03.798Z,25.09
2023-04-18T16:39:31.875Z,24.99
2023-04-18T16:41:59.846Z,24.98
2023-04-18T16:44:27.823Z,25.22
2023-04-18T16:46:56.154Z,25.27
2023-04-18T16:49:24.228Z,25.12
2023-04-18T16:51:52.197Z,25.14
2023-04-18T16:54:20.223Z,24.88
2023-04-18T16:56:48.482Z,24.94
2023-04-18T16:59:17.738Z,25.36
2023-04-18T17:01:45.976Z,25.35
2023-04-18T17:04:15.438Z,25.41
2023-04-18T17:06:43.924Z,25.28
2023-04-18T17:09:14.831Z,24.80
2023-04-18T17:11:42.989Z,24.60
2023-04-18T17:14:11.557Z,25.07
2023-04-18T17:16:40.479Z,25.19
2023-04-18T17:19:09.158Z,25.66
2023-04-18T17:21:37.157Z,25.62
2023-04-18T17:24:06.954Z,25.89
2023-04-18T17:26:35.791Z,25.90
2023-04-18T17:29:04.496Z,25.37
2023-04-18T17:31:32.708Z,25.97
2023-04-18T17:34:00.943Z,26.63
2023-04-18T17:36:28.936Z,26.54
2023-04-18T17:38:59.012Z,26.49
2023-04-18T17:41:28.655Z,26.51
2023-04-18T17:43:58.121Z,26.67
2023-04-18T17:46:26.577Z,29.22
2023-04-18T17:48:54.456Z,30.36
2023-04-18T17:51:23.657Z,30.40
2023-04-18T17:53:51.696Z,30.36
2023-04-18T17:56:19.732Z,29.77
2023-04-18T17:58:47.774Z,29.70
2023-04-18T18:01:20.039Z,29.29
2023-04-18T18:03:48.390Z,28.97
2023-04-18T18:06:16.601Z,28.79
2023-04-18T18:08:44.581Z,28.70
2023-04-18T18:11:12.708Z,29.21
2023-04-18T18:13:40.842Z,29.02
2023-04-18T18:16:09.198Z,28.85
2023-04-18T18:18:38.195Z,28.45
2023-04-18T18:21:06.296Z,27.87
2023-04-18T18:23:34.419Z,27.23
2023-04-18T18:26:02.724Z,26.72
2023-04-18T18:28:30.791Z,26.64
2023-04-18T18:30:58.922Z,26.58
2023-04-18T18:33:28.023Z,26.62
2023-04-18T18:35:58.525Z,26.50
2023-04-18T18:38:26.746Z,26.26
2023-04-18T18:40:54.630Z,25.86
2023-04-18T18:43:26.367Z,26.23
2023-04-18T18:45:54.490Z,26.34
2023-04-18T18:48:23.581Z,26.25
2023-04-18T18:50:53.873Z,26.83
2023-04-18T18:53:22.096Z,27.04
2023-04-18T18:55:50.752Z,26.90
2023-04-18T18:58:18.870Z,26.49
2023-04-18T19:00:47.136Z,26.21
2023-04-18T19:03:18.403Z,26.37
2023-04-18T19:05:46.734Z,26.12
2023-04-18T19:08:14.963Z,26.09
2023-04-18T19:10:43.338Z,25.96
2023-04-18T19:13:11.360Z,25.51
2023-04-18T19:15:39.291Z,25.57
2023-04-18T19:18:09.690Z,25.32
2023-04-18T19:20:40.331Z,25.26
2023-04-18T19:23:08.472Z,25.39
2023-04-18T19:25:38.549Z,25.66
2023-04-18T19:28:10.020Z,25.88
2023-04-18T19:30:38.076Z,25.77
2023-04-18T19:33:06.172Z,25.46
2023-04-18T19:35:35.887Z,25.77
2023-04-18T19:38:05.727Z,25.32
2023-04-18T19:40:33.641Z,25.00
2023-04-18T19:43:01.572Z,25.19
2023-04-18T19:45:30.524Z,25.37
2023-04-18T19:47:58.719Z,25.23
2023-04-18T19:50:26.770Z,24.91
2023-04-18T19:52:54.802Z,25.05
2023-04-18T19:55:22.998Z,24.95
2023-04-18T19:57:54.208Z,24.96
2023-04-18T20:00:22.228Z,25.33
2023-04-18T20:02:53.644Z,25.87
2023-04-18T20:05:22.015Z,25.73
2023-04-18T20:07:50.243Z,25.56
2023-04-18T20:10:21.067Z,25.09
2023-04-18T20:12:50.140Z,24.98
2023-04-18T20:15:18.322Z,24.71
2023-04-18T20:17:48.682Z,24.32
2023-04-18T20:20:16.644Z,24.74
2023-04-18T20:22:46.999Z,25.13
2023-04-18T20:25:15.023Z,24.38
2023-04-18T20:27:43.119Z,24.27
2023-04-18T20:30:11.690Z,23.95
2023-04-18T20:32:40.649Z,24.39
2023-04-18T20:35:09.440Z,24.32
2023-04-18T20:37:37.572Z,23.96
2023-04-18T20:40:09.025Z,24.11
2023-04-18T20:42:38.678Z,24.64
2023-04-18T20:45:10.871Z,24.04
2023-04-18T20:47:41.263Z,23.98
2023-04-18T20:50:10.146Z,23.63
2023-04-18T20:52:38.491Z,23.30
2023-04-18T20:55:06.559Z,23.74
2023-04-18T20:57:35.926Z,23.93
2023-04-18T21:00:06.716Z,24.00
2023-04-18T21:02:35.039Z,24.02
2023-04-18T21:05:03.186Z,23.92
2023-04-18T21:07:32.353Z,23.83
2023-04-18T21:10:00.391Z,23.68
2023-04-18T21:12:28.471Z,23.88
2023-04-18T21:14:56.445Z,24.01
2023-04-18T21:17:27.789Z,23.97
2023-04-18T21:19:55.875Z,23.92
2023-04-18T21:22:23.833Z,23.90
2023-04-18T21:24:51.745Z,23.73
2023-04-18T21:27:19.658Z,23.94
2023-04-18T21:29:47.963Z,23.93
2023-04-18T21:32:15.932Z,24.29
2023-04-18T21:34:45.728Z,24.35
2023-04-18T21:37:13.660Z,24.25
2023-04-18T21:39:42.586Z,24.08
2023-04-18T21:42:10.926Z,23.64
2023-04-18T21:44:38.783Z,23.66
2023-04-18T21:47:06.704Z,23.56
2023-04-18T21:49:35.062Z,23.69
2023-04-18T21:52:03.003Z,23.81
2023-04-18T21:54:31.139Z,24.14
2023-04-18T21:56:59.104Z,24.13
2023-04-18T21:59:30.656Z,24.26
2023-04-18T22:01:59.824Z,24.00
2023-04-18T22:04:31.464Z,24.09
2023-04-18T22:06:59.415Z,24.30
2023-04-18T22:09:27.277Z,24.21
2023-04-18T22:11:56.960Z,24.68
2023-04-18T22:14:25.011Z,24.46
2023-04-18T22:16:54.095Z,24.65
2023-04-18T22:19:22.314Z,24.81
2023-04-18T22:21:50.459Z,24.50
2023-04-18T22:24:19.690Z,24.20
2023-04-18T22:26:47.973Z,24.03
2023-04-18T22:29:16.035Z,24.09
2023-04-18T22:31:45.321Z,24.01
2023-04-18T22:34:13.785Z,24.01
2023-04-18T22:36:42.922Z,24.46
2023-04-18T22:39:12.254Z,24.33
2023-04-18T22:41:40.497Z,24.18
2023-04-18T22:44:08.433Z,24.20
2023-04-18T22:46:39.303Z,24.19
2023-04-18T22:49:07.513Z,24.55
2023-04-18T22:51:35.726Z,24.83
2023-04-18T22:54:03.749Z,24.63
2023-04-18T22:56:31.894Z,24.81
2023-04-18T22:59:00.046Z,24.73
2023-04-18T23:01:28.353Z,25.05
2023-04-18T23:03:56.813Z,24.97
2023-04-18T23:06:24.991Z,25.22
2023-04-18T23:08:53.050Z,26.24
2023-04-18T23:11:21.595Z,25.83
2023-04-18T23:13:49.677Z,25.66
2023-04-18T23:16:17.642Z,25.65
2023-04-18T23:18:45.698Z,25.51
2023-04-18T23:21:13.564Z,25.39
2023-04-18T23:23:41.544Z,25.64
2023-04-18T23:26:15.986Z,26.33
2023-04-18T23:28:44.345Z,26.73
2023-04-18T23:31:12.717Z,26.83
2023-04-18T23:33:40.902Z,26.44
2023-04-18T23:36:09.153Z,25.50
2023-04-18T23:38:38.410Z,25.09
2023-04-18T23:41:06.501Z,25.26
2023-04-18T23:43:35.485Z,25.20
2023-04-18T23:46:04.064Z,25.48
2023-04-18T23:48:32.324Z,25.53
2023-04-18T23:51:00.979Z,25.37
2023-04-18T23:53:29.116Z,25.27
2023-04-18T23:55:57.021Z,24.87
2023-04-18T23:58:26.463Z,24.90
